sensor_id;sensor_type;location;lat;lon;timestamp;temperature;humidity
18932;DHT22;9598;50.954;3.112;2022-09-01T00:00:21;21.50;99.90
18932;DHT22;9598;50.954;3.112;2022-09-01T00:05:28;21.40;99.90
18932;DHT22;9598;50.954;3.112;2022-09-01T00:10:34;21.40;99.90
18932;DHT22;9598;50.954;3.112;2022-09-01T00:15:36;21.40;99.90
18932;DHT22;9598;50.954;3.112;2022-09-01T00:20:38;21.40;99.90
18932;DHT22;9598;50.954;3.112;2022-09-01T00:25:41;21.30;99.90
18932;DHT22;9598;50.954;3.112;2022-09-01T00:30:44;21.20;99.90
18932;DHT22;9598;50.954;3.112;2022-09-01T00:35:46;21.20;99.90
18932;DHT22;9598;50.954;3.112;2022-09-01T00:40:50;21.20;99.90
18932;DHT22;9598;50.954;3.112;2022-09-01T00:45:52;21.10;99.90
18932;DHT22;9598;50.954;3.112;2022-09-01T00:50:54;21.00;99.90
18932;DHT22;9598;50.954;3.112;2022-09-01T00:55:58;21.00;99.90
18932;DHT22;9598;50.954;3.112;2022-09-01T01:01:00;20.90;99.90
18932;DHT22;9598;50.954;3.112;2022-09-01T01:06:06;20.90;99.90
18932;DHT22;9598;50.954;3.112;2022-09-01T01:11:12;20.80;99.90
18932;DHT22;9598;50.954;3.112;2022-09-01T01:16:17;20.80;99.90
18932;DHT22;9598;50.954;3.112;2022-09-01T01:21:24;20.70;99.90
18932;DHT22;9598;50.954;3.112;2022-09-01T01:26:46;20.60;99.90
18932;DHT22;9598;50.954;3.112;2022-09-01T01:31:48;20.50;99.90
18932;DHT22;9598;50.954;3.112;2022-09-01T01:36:53;20.40;99.90
18932;DHT22;9598;50.954;3.112;2022-09-01T01:42:01;20.30;99.90
18932;DHT22;9598;50.954;3.112;2022-09-01T01:47:05;20.30;99.90
18932;DHT22;9598;50.954;3.112;2022-09-01T01:52:11;20.30;99.90
18932;DHT22;9598;50.954;3.112;2022-09-01T01:57:17;20.20;99.90
18932;DHT22;9598;50.954;3.112;2022-09-01T02:02:19;20.20;99.90
18932;DHT22;9598;50.954;3.112;2022-09-01T02:07:22;20.10;99.90
18932;DHT22;9598;50.954;3.112;2022-09-01T02:12:26;20.10;99.90
18932;DHT22;9598;50.954;3.112;2022-09-01T02:17:28;20.00;99.90
18932;DHT22;9598;50.954;3.112;2022-09-01T02:22:30;20.00;99.90
18932;DHT22;9598;50.954;3.112;2022-09-01T02:27:34;20.00;99.90
18932;DHT22;9598;50.954;3.112;2022-09-01T02:32:39;19.90;99.90
18932;DHT22;9598;50.954;3.112;2022-09-01T02:37:42;19.90;99.90
18932;DHT22;9598;50.954;3.112;2022-09-01T02:42:48;19.80;99.90
18932;DHT22;9598;50.954;3.112;2022-09-01T02:47:52;19.70;99.90
18932;DHT22;9598;50.954;3.112;2022-09-01T02:52:56;19.70;99.90
18932;DHT22;9598;50.954;3.112;2022-09-01T02:58:00;19.70;99.90
18932;DHT22;9598;50.954;3.112;2022-09-01T03:03:05;19.60;99.90
18932;DHT22;9598;50.954;3.112;2022-09-01T03:08:09;19.60;99.90
18932;DHT22;9598;50.954;3.112;2022-09-01T03:13:20;19.60;99.90
18932;DHT22;9598;50.954;3.112;2022-09-01T03:18:23;19.50;99.90
18932;DHT22;9598;50.954;3.112;2022-09-01T03:23:25;19.50;99.90
18932;DHT22;9598;50.954;3.112;2022-09-01T03:28:29;19.40;99.90
18932;DHT22;9598;50.954;3.112;2022-09-01T03:33:31;19.30;99.90
18932;DHT22;9598;50.954;3.112;2022-09-01T03:38:34;19.30;99.90
18932;DHT22;9598;50.954;3.112;2022-09-01T03:43:40;19.30;99.90
18932;DHT22;9598;50.954;3.112;2022-09-01T03:48:42;19.20;99.90
18932;DHT22;9598;50.954;3.112;2022-09-01T03:53:44;19.20;99.90
18932;DHT22;9598;50.954;3.112;2022-09-01T03:58:48;19.20;99.90
18932;DHT22;9598;50.954;3.112;2022-09-01T04:03:51;19.20;99.90
18932;DHT22;9598;50.954;3.112;2022-09-01T04:08:58;19.10;99.90
18932;DHT22;9598;50.954;3.112;2022-09-01T04:14:09;19.10;99.90
18932;DHT22;9598;50.954;3.112;2022-09-01T04:19:15;19.00;99.90
18932;DHT22;9598;50.954;3.112;2022-09-01T04:24:21;19.00;99.90
18932;DHT22;9598;50.954;3.112;2022-09-01T04:29:27;18.90;99.90
18932;DHT22;9598;50.954;3.112;2022-09-01T04:34:32;18.90;99.90
18932;DHT22;9598;50.954;3.112;2022-09-01T04:39:38;18.80;99.90
18932;DHT22;9598;50.954;3.112;2022-09-01T04:44:41;18.80;99.90
18932;DHT22;9598;50.954;3.112;2022-09-01T04:49:46;18.80;99.90
18932;DHT22;9598;50.954;3.112;2022-09-01T04:54:49;18.70;99.90
18932;DHT22;9598;50.954;3.112;2022-09-01T04:59:54;18.60;99.90
18932;DHT22;9598;50.954;3.112;2022-09-01T05:04:56;18.60;99.90
18932;DHT22;9598;50.954;3.112;2022-09-01T05:09:58;18.60;99.90
18932;DHT22;9598;50.954;3.112;2022-09-01T05:15:31;18.50;99.90
18932;DHT22;9598;50.954;3.112;2022-09-01T05:20:36;18.50;99.90
18932;DHT22;9598;50.954;3.112;2022-09-01T05:25:43;18.50;99.90
18932;DHT22;9598;50.954;3.112;2022-09-01T05:30:47;18.50;99.90
18932;DHT22;9598;50.954;3.112;2022-09-01T05:35:53;18.40;99.90
18932;DHT22;9598;50.954;3.112;2022-09-01T05:40:57;18.40;99.90
18932;DHT22;9598;50.954;3.112;2022-09-01T05:46:07;18.40;99.90
18932;DHT22;9598;50.954;3.112;2022-09-01T05:51:11;18.40;99.90
18932;DHT22;9598;50.954;3.112;2022-09-01T05:56:19;18.40;99.90
18932;DHT22;9598;50.954;3.112;2022-09-01T06:01:27;18.40;99.90
18932;DHT22;9598;50.954;3.112;2022-09-01T06:06:36;18.40;99.90
18932;DHT22;9598;50.954;3.112;2022-09-01T06:11:39;18.40;99.90
18932;DHT22;9598;50.954;3.112;2022-09-01T06:16:43;18.40;99.90
18932;DHT22;9598;50.954;3.112;2022-09-01T06:21:49;18.40;99.90
18932;DHT22;9598;50.954;3.112;2022-09-01T06:26:53;18.40;99.90
18932;DHT22;9598;50.954;3.112;2022-09-01T06:31:56;18.50;99.90
18932;DHT22;9598;50.954;3.112;2022-09-01T06:37:02;18.50;99.90
18932;DHT22;9598;50.954;3.112;2022-09-01T06:42:05;18.40;99.90
18932;DHT22;9598;50.954;3.112;2022-09-01T06:47:21;18.50;99.90
18932;DHT22;9598;50.954;3.112;2022-09-01T06:52:24;18.50;99.90
18932;DHT22;9598;50.954;3.112;2022-09-01T06:57:26;18.50;99.90
18932;DHT22;9598;50.954;3.112;2022-09-01T07:02:31;18.70;99.90
18932;DHT22;9598;50.954;3.112;2022-09-01T07:07:49;18.70;99.90
18932;DHT22;9598;50.954;3.112;2022-09-01T07:13:11;18.80;99.90
18932;DHT22;9598;50.954;3.112;2022-09-01T07:18:23;19.00;99.90
18932;DHT22;9598;50.954;3.112;2022-09-01T07:23:26;19.10;99.90
18932;DHT22;9598;50.954;3.112;2022-09-01T07:28:30;19.20;99.90
18932;DHT22;9598;50.954;3.112;2022-09-01T07:33:34;19.40;99.90
18932;DHT22;9598;50.954;3.112;2022-09-01T07:38:37;19.50;99.90
18932;DHT22;9598;50.954;3.112;2022-09-01T07:43:41;19.60;99.90
18932;DHT22;9598;50.954;3.112;2022-09-01T07:48:58;19.80;99.90
18932;DHT22;9598;50.954;3.112;2022-09-01T07:54:02;20.10;99.90
18932;DHT22;9598;50.954;3.112;2022-09-01T07:59:04;20.20;99.90
18932;DHT22;9598;50.954;3.112;2022-09-01T08:04:10;20.40;99.90
18932;DHT22;9598;50.954;3.112;2022-09-01T08:09:15;20.60;99.90
18932;DHT22;9598;50.954;3.112;2022-09-01T08:14:17;20.70;99.90
18932;DHT22;9598;50.954;3.112;2022-09-01T08:19:21;20.90;99.90
18932;DHT22;9598;50.954;3.112;2022-09-01T08:24:40;21.10;99.90
18932;DHT22;9598;50.954;3.112;2022-09-01T08:29:43;21.30;99.90
18932;DHT22;9598;50.954;3.112;2022-09-01T08:34:46;21.50;99.90
18932;DHT22;9598;50.954;3.112;2022-09-01T08:39:48;21.70;99.90
18932;DHT22;9598;50.954;3.112;2022-09-01T08:44:55;21.80;99.90
18932;DHT22;9598;50.954;3.112;2022-09-01T08:50:00;22.10;99.90
18932;DHT22;9598;50.954;3.112;2022-09-01T08:55:25;22.20;99.90
18932;DHT22;9598;50.954;3.112;2022-09-01T09:00:38;22.40;99.90
18932;DHT22;9598;50.954;3.112;2022-09-01T09:06:02;22.70;99.90
18932;DHT22;9598;50.954;3.112;2022-09-01T09:11:15;22.90;99.90
18932;DHT22;9598;50.954;3.112;2022-09-01T09:16:22;23.00;99.90
18932;DHT22;9598;50.954;3.112;2022-09-01T09:21:31;23.30;99.90
18932;DHT22;9598;50.954;3.112;2022-09-01T09:26:34;23.50;99.90
18932;DHT22;9598;50.954;3.112;2022-09-01T09:31:37;23.70;99.90
18932;DHT22;9598;50.954;3.112;2022-09-01T09:36:44;23.80;99.90
18932;DHT22;9598;50.954;3.112;2022-09-01T09:42:03;23.90;99.90
18932;DHT22;9598;50.954;3.112;2022-09-01T09:47:10;24.00;99.90
18932;DHT22;9598;50.954;3.112;2022-09-01T09:52:16;24.10;99.90
18932;DHT22;9598;50.954;3.112;2022-09-01T09:57:19;24.20;99.90
18932;DHT22;9598;50.954;3.112;2022-09-01T10:02:26;24.40;99.90
18932;DHT22;9598;50.954;3.112;2022-09-01T10:07:35;24.60;99.90
18932;DHT22;9598;50.954;3.112;2022-09-01T10:12:37;24.80;99.90
18932;DHT22;9598;50.954;3.112;2022-09-01T10:17:41;25.00;99.90
18932;DHT22;9598;50.954;3.112;2022-09-01T10:22:44;25.30;99.90
18932;DHT22;9598;50.954;3.112;2022-09-01T10:27:49;25.50;99.90
18932;DHT22;9598;50.954;3.112;2022-09-01T10:32:54;25.50;99.90
18932;DHT22;9598;50.954;3.112;2022-09-01T10:38:00;25.60;99.90
18932;DHT22;9598;50.954;3.112;2022-09-01T10:43:35;25.70;99.90
18932;DHT22;9598;50.954;3.112;2022-09-01T10:48:38;25.80;99.90
18932;DHT22;9598;50.954;3.112;2022-09-01T10:53:43;25.90;99.90
18932;DHT22;9598;50.954;3.112;2022-09-01T10:58:55;26.00;99.90
18932;DHT22;9598;50.954;3.112;2022-09-01T11:04:00;25.90;99.90
18932;DHT22;9598;50.954;3.112;2022-09-01T11:09:06;26.00;99.90
18932;DHT22;9598;50.954;3.112;2022-09-01T11:14:16;26.00;99.90
18932;DHT22;9598;50.954;3.112;2022-09-01T11:19:36;26.10;99.90
18932;DHT22;9598;50.954;3.112;2022-09-01T11:24:51;26.20;99.90
18932;DHT22;9598;50.954;3.112;2022-09-01T11:30:06;26.40;99.90
18932;DHT22;9598;50.954;3.112;2022-09-01T11:35:14;26.60;99.90
18932;DHT22;9598;50.954;3.112;2022-09-01T11:40:23;26.80;99.90
18932;DHT22;9598;50.954;3.112;2022-09-01T11:45:28;26.80;99.90
18932;DHT22;9598;50.954;3.112;2022-09-01T11:50:34;26.80;99.90
18932;DHT22;9598;50.954;3.112;2022-09-01T11:55:40;26.90;99.90
18932;DHT22;9598;50.954;3.112;2022-09-01T12:00:43;26.90;99.90
18932;DHT22;9598;50.954;3.112;2022-09-01T12:05:46;27.00;99.90
18932;DHT22;9598;50.954;3.112;2022-09-01T12:10:59;27.00;98.90
18932;DHT22;9598;50.954;3.112;2022-09-01T12:16:05;27.00;99.10
18932;DHT22;9598;50.954;3.112;2022-09-01T12:21:07;27.00;99.60
18932;DHT22;9598;50.954;3.112;2022-09-01T12:26:21;27.10;99.00
18932;DHT22;9598;50.954;3.112;2022-09-01T12:31:25;27.10;98.50
18932;DHT22;9598;50.954;3.112;2022-09-01T12:36:29;27.20;98.70
18932;DHT22;9598;50.954;3.112;2022-09-01T12:41:35;27.30;98.60
18932;DHT22;9598;50.954;3.112;2022-09-01T12:46:43;27.50;98.60
18932;DHT22;9598;50.954;3.112;2022-09-01T12:51:46;27.60;98.00
18932;DHT22;9598;50.954;3.112;2022-09-01T12:56:49;27.60;97.30
18932;DHT22;9598;50.954;3.112;2022-09-01T13:01:52;27.70;97.60
18932;DHT22;9598;50.954;3.112;2022-09-01T13:07:00;27.80;97.00
18932;DHT22;9598;50.954;3.112;2022-09-01T13:12:11;27.90;97.90
18932;DHT22;9598;50.954;3.112;2022-09-01T13:17:16;28.10;97.30
18932;DHT22;9598;50.954;3.112;2022-09-01T13:22:19;28.20;96.40
18932;DHT22;9598;50.954;3.112;2022-09-01T13:27:22;28.20;96.00
18932;DHT22;9598;50.954;3.112;2022-09-01T13:32:24;28.20;95.50
18932;DHT22;9598;50.954;3.112;2022-09-01T13:37:26;28.10;96.00
18932;DHT22;9598;50.954;3.112;2022-09-01T13:42:30;28.20;95.20
18932;DHT22;9598;50.954;3.112;2022-09-01T13:47:32;28.20;95.20
18932;DHT22;9598;50.954;3.112;2022-09-01T13:52:34;28.20;94.60
18932;DHT22;9598;50.954;3.112;2022-09-01T13:57:38;27.90;94.10
18932;DHT22;9598;50.954;3.112;2022-09-01T14:02:42;27.90;95.00
18932;DHT22;9598;50.954;3.112;2022-09-01T14:07:49;27.90;95.90
18932;DHT22;9598;50.954;3.112;2022-09-01T14:12:52;28.00;94.80
18932;DHT22;9598;50.954;3.112;2022-09-01T14:17:55;28.00;93.60
18932;DHT22;9598;50.954;3.112;2022-09-01T14:22:58;28.00;93.40
18932;DHT22;9598;50.954;3.112;2022-09-01T14:28:02;28.00;93.00
18932;DHT22;9598;50.954;3.112;2022-09-01T14:33:04;28.10;93.00
18932;DHT22;9598;50.954;3.112;2022-09-01T14:38:08;28.10;93.10
18932;DHT22;9598;50.954;3.112;2022-09-01T14:43:12;28.20;92.30
18932;DHT22;9598;50.954;3.112;2022-09-01T14:48:16;28.10;91.90
18932;DHT22;9598;50.954;3.112;2022-09-01T14:53:19;27.90;91.70
18932;DHT22;9598;50.954;3.112;2022-09-01T14:58:26;27.70;92.50
18932;DHT22;9598;50.954;3.112;2022-09-01T15:03:29;27.70;91.60
18932;DHT22;9598;50.954;3.112;2022-09-01T15:08:31;27.70;91.90
18932;DHT22;9598;50.954;3.112;2022-09-01T15:13:34;27.70;91.50
18932;DHT22;9598;50.954;3.112;2022-09-01T15:18:37;27.60;90.70
18932;DHT22;9598;50.954;3.112;2022-09-01T15:23:39;27.50;91.20
18932;DHT22;9598;50.954;3.112;2022-09-01T15:28:42;27.50;90.80
18932;DHT22;9598;50.954;3.112;2022-09-01T15:33:45;27.40;91.10
18932;DHT22;9598;50.954;3.112;2022-09-01T15:38:47;27.50;91.10
18932;DHT22;9598;50.954;3.112;2022-09-01T15:43:51;27.50;91.60
18932;DHT22;9598;50.954;3.112;2022-09-01T15:48:54;27.50;91.10
18932;DHT22;9598;50.954;3.112;2022-09-01T15:53:57;27.50;90.70
18932;DHT22;9598;50.954;3.112;2022-09-01T15:59:03;27.40;90.90
18932;DHT22;9598;50.954;3.112;2022-09-01T16:04:07;27.50;90.70
18932;DHT22;9598;50.954;3.112;2022-09-01T16:09:12;27.50;90.80
18932;DHT22;9598;50.954;3.112;2022-09-01T16:14:15;27.40;90.60
18932;DHT22;9598;50.954;3.112;2022-09-01T16:19:28;27.40;90.40
18932;DHT22;9598;50.954;3.112;2022-09-01T16:24:39;27.40;90.50
18932;DHT22;9598;50.954;3.112;2022-09-01T16:29:46;27.40;90.30
18932;DHT22;9598;50.954;3.112;2022-09-01T16:34:50;27.30;89.80
18932;DHT22;9598;50.954;3.112;2022-09-01T16:39:57;27.30;89.30
18932;DHT22;9598;50.954;3.112;2022-09-01T16:45:05;27.10;90.30
18932;DHT22;9598;50.954;3.112;2022-09-01T16:50:17;27.10;90.50
18932;DHT22;9598;50.954;3.112;2022-09-01T16:55:28;26.90;90.70
18932;DHT22;9598;50.954;3.112;2022-09-01T17:00:45;26.90;90.30
18932;DHT22;9598;50.954;3.112;2022-09-01T17:05:54;26.80;90.40
18932;DHT22;9598;50.954;3.112;2022-09-01T17:10:58;26.80;90.20
18932;DHT22;9598;50.954;3.112;2022-09-01T17:16:10;26.80;90.80
18932;DHT22;9598;50.954;3.112;2022-09-01T17:21:20;26.70;90.90
18932;DHT22;9598;50.954;3.112;2022-09-01T17:26:25;26.60;91.20
18932;DHT22;9598;50.954;3.112;2022-09-01T17:31:43;26.60;91.00
18932;DHT22;9598;50.954;3.112;2022-09-01T17:36:52;26.40;90.40
18932;DHT22;9598;50.954;3.112;2022-09-01T17:42:05;26.30;90.90
18932;DHT22;9598;50.954;3.112;2022-09-01T17:47:16;26.30;91.00
18932;DHT22;9598;50.954;3.112;2022-09-01T17:52:31;26.20;91.40
18932;DHT22;9598;50.954;3.112;2022-09-01T17:57:39;26.20;91.40
18932;DHT22;9598;50.954;3.112;2022-09-01T18:03:06;26.10;91.30
18932;DHT22;9598;50.954;3.112;2022-09-01T18:08:35;26.00;91.50
18932;DHT22;9598;50.954;3.112;2022-09-01T18:13:43;25.90;91.80
18932;DHT22;9598;50.954;3.112;2022-09-01T18:18:50;25.80;92.00
18932;DHT22;9598;50.954;3.112;2022-09-01T18:23:57;25.70;91.90
18932;DHT22;9598;50.954;3.112;2022-09-01T18:29:03;25.60;92.50
18932;DHT22;9598;50.954;3.112;2022-09-01T18:34:13;25.50;92.20
18932;DHT22;9598;50.954;3.112;2022-09-01T18:39:21;25.40;92.40
18932;DHT22;9598;50.954;3.112;2022-09-01T18:44:37;25.20;92.30
18932;DHT22;9598;50.954;3.112;2022-09-01T18:49:51;25.10;92.80
18932;DHT22;9598;50.954;3.112;2022-09-01T18:54:59;25.10;92.90
18932;DHT22;9598;50.954;3.112;2022-09-01T19:00:09;25.00;92.90
18932;DHT22;9598;50.954;3.112;2022-09-01T19:05:25;24.90;93.00
18932;DHT22;9598;50.954;3.112;2022-09-01T19:10:37;24.80;93.00
18932;DHT22;9598;50.954;3.112;2022-09-01T19:15:44;24.60;93.20
18932;DHT22;9598;50.954;3.112;2022-09-01T19:20:51;24.50;93.00
18932;DHT22;9598;50.954;3.112;2022-09-01T19:26:01;24.40;93.40
18932;DHT22;9598;50.954;3.112;2022-09-01T19:31:09;24.30;93.20
18932;DHT22;9598;50.954;3.112;2022-09-01T19:36:21;24.20;93.40
18932;DHT22;9598;50.954;3.112;2022-09-01T19:41:28;24.10;93.40
18932;DHT22;9598;50.954;3.112;2022-09-01T19:46:37;24.00;93.30
18932;DHT22;9598;50.954;3.112;2022-09-01T19:51:49;23.90;93.20
18932;DHT22;9598;50.954;3.112;2022-09-01T19:56:57;23.90;93.60
18932;DHT22;9598;50.954;3.112;2022-09-01T20:02:07;23.70;93.50
18932;DHT22;9598;50.954;3.112;2022-09-01T20:07:16;23.60;93.80
18932;DHT22;9598;50.954;3.112;2022-09-01T20:12:28;23.50;93.70
18932;DHT22;9598;50.954;3.112;2022-09-01T20:17:38;23.40;94.00
18932;DHT22;9598;50.954;3.112;2022-09-01T20:22:49;23.30;94.20
18932;DHT22;9598;50.954;3.112;2022-09-01T20:27:59;23.30;94.20
18932;DHT22;9598;50.954;3.112;2022-09-01T20:33:04;23.20;94.20
18932;DHT22;9598;50.954;3.112;2022-09-01T20:38:16;23.20;94.70
18932;DHT22;9598;50.954;3.112;2022-09-01T20:43:39;23.10;94.60
18932;DHT22;9598;50.954;3.112;2022-09-01T20:48:44;23.00;94.80
18932;DHT22;9598;50.954;3.112;2022-09-01T20:54:00;22.90;94.90
18932;DHT22;9598;50.954;3.112;2022-09-01T20:59:09;22.80;94.90
18932;DHT22;9598;50.954;3.112;2022-09-01T21:04:27;22.80;95.30
18932;DHT22;9598;50.954;3.112;2022-09-01T21:09:37;22.70;95.40
18932;DHT22;9598;50.954;3.112;2022-09-01T21:14:50;22.70;95.90
18932;DHT22;9598;50.954;3.112;2022-09-01T21:20:05;22.60;95.80
18932;DHT22;9598;50.954;3.112;2022-09-01T21:25:13;22.60;96.10
18932;DHT22;9598;50.954;3.112;2022-09-01T21:30:15;22.50;96.10
18932;DHT22;9598;50.954;3.112;2022-09-01T21:35:18;22.40;96.40
18932;DHT22;9598;50.954;3.112;2022-09-01T21:40:23;22.30;96.70
18932;DHT22;9598;50.954;3.112;2022-09-01T21:45:26;22.30;96.90
18932;DHT22;9598;50.954;3.112;2022-09-01T21:50:28;22.20;97.00
18932;DHT22;9598;50.954;3.112;2022-09-01T21:55:32;22.10;97.30
18932;DHT22;9598;50.954;3.112;2022-09-01T22:00:36;22.10;97.50
18932;DHT22;9598;50.954;3.112;2022-09-01T22:05:40;22.10;97.60
18932;DHT22;9598;50.954;3.112;2022-09-01T22:10:45;22.00;97.90
18932;DHT22;9598;50.954;3.112;2022-09-01T22:15:51;22.00;98.10
18932;DHT22;9598;50.954;3.112;2022-09-01T22:21:00;22.00;98.00
18932;DHT22;9598;50.954;3.112;2022-09-01T22:26:04;21.90;98.30
18932;DHT22;9598;50.954;3.112;2022-09-01T22:31:06;21.80;98.40
18932;DHT22;9598;50.954;3.112;2022-09-01T22:36:18;21.70;98.90
18932;DHT22;9598;50.954;3.112;2022-09-01T22:41:23;21.70;99.40
18932;DHT22;9598;50.954;3.112;2022-09-01T22:46:26;21.70;99.40
18932;DHT22;9598;50.954;3.112;2022-09-01T22:51:30;21.60;99.60
18932;DHT22;9598;50.954;3.112;2022-09-01T22:56:35;21.60;99.80
18932;DHT22;9598;50.954;3.112;2022-09-01T23:01:39;21.50;99.90
18932;DHT22;9598;50.954;3.112;2022-09-01T23:06:46;21.50;99.90
18932;DHT22;9598;50.954;3.112;2022-09-01T23:11:50;21.50;99.90
18932;DHT22;9598;50.954;3.112;2022-09-01T23:16:52;21.50;99.90
18932;DHT22;9598;50.954;3.112;2022-09-01T23:21:54;21.40;99.90
18932;DHT22;9598;50.954;3.112;2022-09-01T23:26:58;21.40;99.90
18932;DHT22;9598;50.954;3.112;2022-09-01T23:32:00;21.30;99.90
18932;DHT22;9598;50.954;3.112;2022-09-01T23:37:02;21.30;99.90
18932;DHT22;9598;50.954;3.112;2022-09-01T23:42:06;21.20;99.90
18932;DHT22;9598;50.954;3.112;2022-09-01T23:47:08;21.10;99.90
18932;DHT22;9598;50.954;3.112;2022-09-01T23:52:10;21.00;99.90
18932;DHT22;9598;50.954;3.112;2022-09-01T23:57:13;21.00;99.90
